createdAt,value
2018-03-06T00:00:19.083Z,35.50
2018-03-06T00:02:45.352Z,35.93
2018-03-06T00:05:11.604Z,35.50
2018-03-06T00:07:37.920Z,35.13
2018-03-06T00:10:04.252Z,34.83
2018-03-06T00:12:30.616Z,38.17
2018-03-06T00:14:56.918Z,34.93
2018-03-06T00:17:23.220Z,36.73
2018-03-06T00:19:49.484Z,34.97
2018-03-06T00:22:15.800Z,34.33
2018-03-06T00:24:42.133Z,33.67
2018-03-06T00:27:08.442Z,35.40
2018-03-06T00:29:35.479Z,33.43
2018-03-06T00:32:02.564Z,32.13
2018-03-06T00:34:28.869Z,33.00
2018-03-06T00:36:55.097Z,32.30
2018-03-06T00:39:21.387Z,32.57
2018-03-06T00:41:47.697Z,35.97
2018-03-06T00:44:13.978Z,31.63
2018-03-06T00:46:40.960Z,32.97
2018-03-06T00:49:07.262Z,34.37
2018-03-06T00:51:34.291Z,33.60
2018-03-06T00:54:00.537Z,34.50
2018-03-06T00:56:27.596Z,34.50
2018-03-06T00:58:54.651Z,32.27
2018-03-06T01:01:20.946Z,31.67
2018-03-06T01:03:47.219Z,31.57
2018-03-06T01:06:13.532Z,31.87
2018-03-06T01:08:39.788Z,32.27
2018-03-06T01:11:06.016Z,30.83
2018-03-06T01:13:32.276Z,31.07
2018-03-06T01:15:58.534Z,32.47
2018-03-06T01:18:25.555Z,30.80
2018-03-06T01:20:51.821Z,29.80
2018-03-06T01:23:18.813Z,30.07
2018-03-06T01:25:45.083Z,31.20
2018-03-06T01:28:12.089Z,32.43
2018-03-06T01:30:38.366Z,29.93
2018-03-06T01:33:05.379Z,27.70
2018-03-06T01:35:38.619Z,30.50
2018-03-06T01:38:04.900Z,27.17
2018-03-06T01:40:31.212Z,27.37
2018-03-06T01:42:57.486Z,25.70
2018-03-06T01:45:23.724Z,27.90
2018-03-06T01:47:50.785Z,28.53
2018-03-06T01:50:17.786Z,25.87
2018-03-06T01:52:44.064Z,28.17
2018-03-06T01:55:10.372Z,29.80
2018-03-06T01:57:37.420Z,29.40
2018-03-06T02:00:04.419Z,28.77
2018-03-06T02:02:30.774Z,29.87
2018-03-06T02:04:57.051Z,27.60
2018-03-06T02:07:24.083Z,29.37
2018-03-06T02:09:51.147Z,30.10
2018-03-06T02:12:17.452Z,29.20
2018-03-06T02:14:43.785Z,29.20
2018-03-06T02:17:10.017Z,31.30
2018-03-06T02:19:37.060Z,30.93
2018-03-06T02:22:03.392Z,28.97
2018-03-06T02:24:29.712Z,32.47
2018-03-06T02:26:56.020Z,28.80
2018-03-06T02:29:22.324Z,30.97
2018-03-06T02:31:48.614Z,30.57
2018-03-06T02:34:14.872Z,30.30
2018-03-06T02:36:41.179Z,33.47
2018-03-06T02:39:08.250Z,29.80
2018-03-06T02:41:34.561Z,29.10
2018-03-06T02:44:01.625Z,31.27
2018-03-06T02:46:28.642Z,31.30
2018-03-06T02:48:55.001Z,31.57
2018-03-06T02:51:22.012Z,31.90
2018-03-06T02:53:50.097Z,31.00
2018-03-06T02:56:16.360Z,31.00
2018-03-06T02:58:42.607Z,31.13
2018-03-06T03:01:08.928Z,31.60
2018-03-06T03:03:35.172Z,31.73
2018-03-06T03:06:01.448Z,30.03
2018-03-06T03:08:27.688Z,28.37
2018-03-06T03:10:54.698Z,29.40
2018-03-06T03:13:20.948Z,31.53
2018-03-06T03:15:47.200Z,31.73
2018-03-06T03:18:14.200Z,28.20
2018-03-06T03:20:40.526Z,28.80
2018-03-06T03:23:06.773Z,32.50
2018-03-06T03:25:33.044Z,31.90
2018-03-06T03:27:59.317Z,30.10
2018-03-06T03:30:25.585Z,30.97
2018-03-06T03:32:51.822Z,27.70
2018-03-06T03:35:18.861Z,28.83
2018-03-06T03:37:45.165Z,29.20
2018-03-06T03:40:11.431Z,32.50
2018-03-06T03:42:38.447Z,29.83
2018-03-06T03:45:04.719Z,31.47
2018-03-06T03:47:31.763Z,30.63
2018-03-06T03:49:58.752Z,28.13
2018-03-06T03:52:25.008Z,29.70
2018-03-06T03:54:51.272Z,30.07
2018-03-06T03:57:18.276Z,28.70
2018-03-06T03:59:44.516Z,29.20
2018-03-06T04:02:10.778Z,30.00
2018-03-06T04:04:37.784Z,29.53
2018-03-06T04:07:04.045Z,31.87
2018-03-06T04:09:31.044Z,34.13
2018-03-06T04:12:04.154Z,33.07
2018-03-06T04:14:30.437Z,31.83
2018-03-06T04:16:56.702Z,33.50
2018-03-06T04:19:23.040Z,34.93
2018-03-06T04:21:49.440Z,33.93
2018-03-06T04:24:15.731Z,36.17
2018-03-06T04:26:42.717Z,34.93
2018-03-06T04:29:08.975Z,36.30
2018-03-06T04:31:35.232Z,35.37
2018-03-06T04:34:01.652Z,36.20
2018-03-06T04:36:27.964Z,39.17
2018-03-06T04:38:54.304Z,37.90
2018-03-06T04:41:20.564Z,37.83
2018-03-06T04:43:47.647Z,37.40
2018-03-06T04:46:14.001Z,37.50
2018-03-06T04:48:40.261Z,38.30
2018-03-06T04:51:06.648Z,40.20
2018-03-06T04:53:32.906Z,39.13
2018-03-06T04:55:59.196Z,39.40
2018-03-06T04:58:25.459Z,41.00
2018-03-06T05:00:51.755Z,40.00
2018-03-06T05:03:18.117Z,39.50
2018-03-06T05:05:45.199Z,38.77
2018-03-06T05:08:12.249Z,40.80
2018-03-06T05:10:39.270Z,39.30
2018-03-06T05:13:05.548Z,38.00
2018-03-06T05:15:31.810Z,35.60
2018-03-06T05:17:58.084Z,37.93
2018-03-06T05:20:25.086Z,37.60
2018-03-06T05:22:51.351Z,37.27
2018-03-06T05:25:17.644Z,39.97
2018-03-06T05:27:43.896Z,39.00
2018-03-06T05:30:10.190Z,39.37
2018-03-06T05:32:36.457Z,39.17
2018-03-06T05:35:02.727Z,39.60
2018-03-06T05:37:29.708Z,40.80
2018-03-06T05:39:55.982Z,40.20
2018-03-06T05:42:22.984Z,35.00
2018-03-06T05:44:49.257Z,37.43
2018-03-06T05:47:16.312Z,40.67
2018-03-06T05:49:42.579Z,36.90
2018-03-06T05:52:08.830Z,36.13
2018-03-06T05:54:35.132Z,35.57
2018-03-06T05:57:01.397Z,40.60
2018-03-06T05:59:28.425Z,35.40
2018-03-06T06:01:54.692Z,34.97
2018-03-06T06:04:20.981Z,37.83
2018-03-06T06:06:47.247Z,37.43
2018-03-06T06:09:13.519Z,35.30
2018-03-06T06:11:39.790Z,35.57
2018-03-06T06:14:06.083Z,35.63
2018-03-06T06:16:33.132Z,36.20
2018-03-06T06:19:00.180Z,35.67
2018-03-06T06:21:27.204Z,36.60
2018-03-06T06:23:53.486Z,38.53
2018-03-06T06:26:19.756Z,41.03
2018-03-06T06:28:46.062Z,38.73
2018-03-06T06:31:12.340Z,35.80
2018-03-06T06:33:39.370Z,36.13
2018-03-06T06:36:05.647Z,38.00
2018-03-06T06:38:31.955Z,36.03
2018-03-06T06:40:59.024Z,38.00
2018-03-06T06:43:25.381Z,36.50
2018-03-06T06:45:51.689Z,35.97
2018-03-06T06:48:17.966Z,34.73
2018-03-06T06:50:44.235Z,37.10
2018-03-06T06:53:11.232Z,36.87
2018-03-06T06:55:37.544Z,37.17
2018-03-06T06:58:03.819Z,36.40
2018-03-06T07:00:30.107Z,32.83
2018-03-06T07:02:56.400Z,35.87
2018-03-06T07:05:23.397Z,36.47
2018-03-06T07:07:49.656Z,34.53
2018-03-06T07:10:15.943Z,35.60
2018-03-06T07:12:42.912Z,34.97
2018-03-06T07:15:09.158Z,34.07
2018-03-06T07:17:35.463Z,33.30
2018-03-06T07:20:01.725Z,31.87
2018-03-06T07:22:28.750Z,33.50
2018-03-06T07:24:55.005Z,35.40
2018-03-06T07:27:22.020Z,33.63
2018-03-06T07:29:48.295Z,36.90
2018-03-06T07:32:15.308Z,36.13
2018-03-06T07:34:41.593Z,37.33
2018-03-06T07:37:07.861Z,36.70
2018-03-06T07:39:34.142Z,36.43
2018-03-06T07:42:00.415Z,35.10
2018-03-06T07:44:26.684Z,37.50
2018-03-06T07:46:53.690Z,36.23
2018-03-06T07:49:19.933Z,36.30
2018-03-06T07:51:46.205Z,36.60
2018-03-06T07:54:12.479Z,36.53
2018-03-06T07:56:38.777Z,36.20
2018-03-06T07:59:05.048Z,35.37
2018-03-06T08:01:31.345Z,35.77
2018-03-06T08:03:57.663Z,34.77
2018-03-06T08:06:23.939Z,36.07
2018-03-06T08:08:50.250Z,34.60
2018-03-06T08:11:16.476Z,35.93
2018-03-06T08:13:42.772Z,35.07
2018-03-06T08:16:09.020Z,34.17
2018-03-06T08:18:35.314Z,35.20
2018-03-06T08:21:02.304Z,34.43
2018-03-06T08:23:28.656Z,34.27
2018-03-06T08:25:54.918Z,35.70
2018-03-06T08:28:21.197Z,35.00
2018-03-06T08:30:47.682Z,35.90
2018-03-06T08:33:14.693Z,33.93
2018-03-06T08:35:40.972Z,33.00
2018-03-06T08:38:07.969Z,34.53
2018-03-06T08:40:35.015Z,34.70
2018-03-06T08:43:01.318Z,35.80
2018-03-06T08:45:27.569Z,31.93
2018-03-06T08:47:53.841Z,34.13
2018-03-06T08:50:20.103Z,32.63
2018-03-06T08:52:46.410Z,33.13
2018-03-06T08:55:13.417Z,33.33
2018-03-06T08:57:39.699Z,32.40
2018-03-06T09:00:05.981Z,34.60
2018-03-06T09:02:32.275Z,34.33
2018-03-06T09:04:58.555Z,32.63
2018-03-06T09:07:24.823Z,31.37
2018-03-06T09:09:51.131Z,33.03
2018-03-06T09:12:17.397Z,31.33
2018-03-06T09:14:43.698Z,32.20
2018-03-06T09:17:09.961Z,28.33
2018-03-06T09:19:36.224Z,31.47
2018-03-06T09:22:02.484Z,31.17
2018-03-06T09:24:28.865Z,29.03
2018-03-06T09:26:55.105Z,27.77
2018-03-06T09:29:21.374Z,29.30
2018-03-06T09:31:47.639Z,29.83
2018-03-06T09:34:13.951Z,30.90
2018-03-06T09:36:40.981Z,29.17
2018-03-06T09:39:08.017Z,31.63
2018-03-06T09:41:34.304Z,32.83
2018-03-06T09:44:00.615Z,30.27
2018-03-06T09:46:26.908Z,30.23
2018-03-06T09:48:53.175Z,26.00
2018-03-06T09:51:19.433Z,30.20
2018-03-06T09:53:45.724Z,28.47
2018-03-06T09:56:12.718Z,30.83
2018-03-06T09:58:39.051Z,28.03
2018-03-06T10:01:05.754Z,28.40
2018-03-06T10:03:32.044Z,27.57
2018-03-06T10:05:58.291Z,27.03
2018-03-06T10:08:25.344Z,28.77
2018-03-06T10:10:51.633Z,27.30
2018-03-06T10:13:17.904Z,25.40
2018-03-06T10:15:44.946Z,26.60
2018-03-06T10:18:11.980Z,25.23
2018-03-06T10:20:38.220Z,27.40
2018-03-06T10:23:04.498Z,27.40
2018-03-06T10:25:30.865Z,27.83
2018-03-06T10:27:57.129Z,28.60
2018-03-06T10:30:24.138Z,26.50
2018-03-06T10:32:50.402Z,26.93
2018-03-06T10:35:17.436Z,25.97
2018-03-06T10:37:43.750Z,26.27
2018-03-06T10:40:10.075Z,27.23
2018-03-06T10:42:36.346Z,27.13
2018-03-06T10:45:03.358Z,27.90
2018-03-06T10:47:29.655Z,26.40
2018-03-06T10:49:55.907Z,27.13
2018-03-06T10:52:22.183Z,24.50
2018-03-06T10:54:49.211Z,25.43
2018-03-06T10:57:15.534Z,25.53
2018-03-06T10:59:41.806Z,26.67
2018-03-06T11:02:14.047Z,23.77
2018-03-06T11:04:40.309Z,24.77
2018-03-06T11:07:06.625Z,25.20
2018-03-06T11:09:32.966Z,24.37
2018-03-06T11:11:59.240Z,24.93
2018-03-06T11:14:25.686Z,25.80
2018-03-06T11:16:51.939Z,25.70
2018-03-06T11:19:18.943Z,24.97
2018-03-06T11:21:45.233Z,23.30
2018-03-06T11:24:11.554Z,26.00
2018-03-06T11:26:38.549Z,25.47
2018-03-06T11:29:04.822Z,25.07
2018-03-06T11:31:31.851Z,23.77
2018-03-06T11:33:58.179Z,23.40
2018-03-06T11:36:24.620Z,23.40
2018-03-06T11:38:50.884Z,23.17
2018-03-06T11:41:17.169Z,21.60
2018-03-06T11:43:43.474Z,26.57
2018-03-06T11:46:09.777Z,23.20
2018-03-06T11:48:36.043Z,22.73
2018-03-06T11:51:02.297Z,21.30
2018-03-06T11:53:28.582Z,22.20
2018-03-06T11:55:54.953Z,23.50
2018-03-06T11:58:21.252Z,21.13
2018-03-06T12:00:47.854Z,22.77
2018-03-06T12:03:14.185Z,24.83
2018-03-06T12:05:41.166Z,22.37
2018-03-06T12:08:07.417Z,22.30
2018-03-06T12:10:33.733Z,23.13
2018-03-06T12:12:59.996Z,22.10
2018-03-06T12:15:26.282Z,23.83
2018-03-06T12:17:52.539Z,21.30
2018-03-06T12:20:18.806Z,21.73
2018-03-06T12:22:45.849Z,20.23
2018-03-06T12:25:12.874Z,20.70
2018-03-06T12:27:39.100Z,23.67
2018-03-06T12:30:05.366Z,21.93
2018-03-06T12:32:32.345Z,22.13
2018-03-06T12:34:58.587Z,21.47
2018-03-06T12:37:24.883Z,20.30
2018-03-06T12:39:51.174Z,21.77
2018-03-06T12:42:17.429Z,20.67
2018-03-06T12:44:44.421Z,21.73
2018-03-06T12:47:10.784Z,22.10
2018-03-06T12:49:37.072Z,23.43
2018-03-06T12:52:03.324Z,22.43
2018-03-06T12:54:30.314Z,19.57
2018-03-06T12:56:57.302Z,19.87
2018-03-06T12:59:23.580Z,22.43
2018-03-06T13:01:50.590Z,22.30
2018-03-06T13:04:17.569Z,20.93
2018-03-06T13:06:43.840Z,21.30
2018-03-06T13:09:10.117Z,21.43
2018-03-06T13:11:36.417Z,22.27
2018-03-06T13:14:02.747Z,22.37
2018-03-06T13:16:29.008Z,19.70
2018-03-06T13:18:55.296Z,23.47
2018-03-06T13:21:21.581Z,20.00
2018-03-06T13:23:48.592Z,20.40
2018-03-06T13:26:14.842Z,21.60
2018-03-06T13:28:41.083Z,22.87
2018-03-06T13:31:07.334Z,21.50
2018-03-06T13:33:34.323Z,24.93
2018-03-06T13:36:00.573Z,22.77
2018-03-06T13:38:26.888Z,24.13
2018-03-06T13:40:53.142Z,25.30
2018-03-06T13:43:19.414Z,25.03
2018-03-06T13:45:45.675Z,25.10
2018-03-06T13:48:11.946Z,23.83
2018-03-06T13:50:38.988Z,22.40
2018-03-06T13:53:06.008Z,22.57
2018-03-06T13:55:32.296Z,23.23
2018-03-06T13:57:58.542Z,21.90
2018-03-06T14:00:24.812Z,22.83
2018-03-06T14:02:51.049Z,23.43
2018-03-06T14:05:17.307Z,23.00
2018-03-06T14:07:43.541Z,22.50
2018-03-06T14:10:09.824Z,22.73
2018-03-06T14:12:36.106Z,23.30
2018-03-06T14:15:02.426Z,21.00
2018-03-06T14:17:28.699Z,22.03
2018-03-06T14:19:54.995Z,22.47
2018-03-06T14:22:21.272Z,21.13
2018-03-06T14:24:47.519Z,22.53
2018-03-06T14:27:13.777Z,21.70
2018-03-06T14:29:40.052Z,21.67
2018-03-06T14:32:06.329Z,23.00
2018-03-06T14:34:33.360Z,20.20
2018-03-06T14:37:01.044Z,22.70
2018-03-06T14:39:27.343Z,20.90
2018-03-06T14:41:53.718Z,21.53
2018-03-06T14:44:20.034Z,22.67
2018-03-06T14:46:47.027Z,20.13
2018-03-06T14:49:13.322Z,21.53
2018-03-06T14:51:39.647Z,19.87
2018-03-06T14:54:05.931Z,20.93
2018-03-06T14:56:32.244Z,22.63
2018-03-06T14:58:58.588Z,19.70
2018-03-06T15:01:24.862Z,20.10
2018-03-06T15:03:51.996Z,21.27
2018-03-06T15:06:19.067Z,21.93
2018-03-06T15:08:45.411Z,20.50
2018-03-06T15:11:11.721Z,20.40
2018-03-06T15:13:38.795Z,21.17
2018-03-06T15:16:05.163Z,22.20
2018-03-06T15:18:31.477Z,21.37
2018-03-06T15:21:02.610Z,22.33
2018-03-06T15:23:28.907Z,19.80
2018-03-06T15:25:55.955Z,20.80
2018-03-06T15:28:23.001Z,21.20
2018-03-06T15:30:58.554Z,21.17
2018-03-06T15:33:24.981Z,19.40
2018-03-06T15:35:52.029Z,20.53
2018-03-06T15:38:32.942Z,20.60
2018-03-06T15:40:59.235Z,19.07
2018-03-06T15:43:26.323Z,22.00
2018-03-06T15:45:52.748Z,21.17
2018-03-06T15:48:19.102Z,21.87
2018-03-06T15:50:45.403Z,21.10
2018-03-06T15:53:11.743Z,21.40
2018-03-06T15:55:38.072Z,18.60
2018-03-06T15:58:04.367Z,21.00
2018-03-06T16:00:31.452Z,19.20
2018-03-06T16:02:57.776Z,20.87
2018-03-06T16:05:24.134Z,19.00
2018-03-06T16:07:50.456Z,17.67
2018-03-06T16:10:17.866Z,16.50
2018-03-06T16:12:44.903Z,20.20
2018-03-06T16:15:11.195Z,18.90
2018-03-06T16:17:37.525Z,18.97
2018-03-06T16:20:03.809Z,19.63
2018-03-06T16:22:30.820Z,20.03
2018-03-06T16:24:57.253Z,19.10
2018-03-06T16:27:24.427Z,20.10
2018-03-06T16:29:50.709Z,20.27
2018-03-06T16:32:17.041Z,19.10
2018-03-06T16:34:43.308Z,22.37
2018-03-06T16:37:09.667Z,20.30
2018-03-06T16:39:36.805Z,20.37
2018-03-06T16:42:03.845Z,22.83
2018-03-06T16:44:30.177Z,20.97
2018-03-06T16:46:56.438Z,20.37
2018-03-06T16:49:22.776Z,21.87
2018-03-06T16:51:49.036Z,22.30
2018-03-06T16:54:16.170Z,22.00
2018-03-06T16:56:57.515Z,23.77
2018-03-06T16:59:25.944Z,24.50
2018-03-06T17:01:52.250Z,24.00
2018-03-06T17:04:18.561Z,23.67
2018-03-06T17:06:45.661Z,23.83
2018-03-06T17:09:12.707Z,22.80
2018-03-06T17:11:38.960Z,23.60
2018-03-06T17:14:05.205Z,26.80
2018-03-06T17:16:32.237Z,27.20
2018-03-06T17:18:58.515Z,27.60
2018-03-06T17:21:24.857Z,26.20
2018-03-06T17:23:51.206Z,26.93
2018-03-06T17:26:17.504Z,25.33
2018-03-06T17:28:43.847Z,26.67
2018-03-06T17:31:10.189Z,27.90
2018-03-06T17:33:36.471Z,32.87
2018-03-06T17:36:03.550Z,34.50
2018-03-06T17:38:29.907Z,35.83
2018-03-06T17:40:56.192Z,36.37
2018-03-06T17:43:23.237Z,34.50
2018-03-06T17:45:50.266Z,33.50
2018-03-06T17:48:16.641Z,35.60
2018-03-06T17:50:42.985Z,34.47
2018-03-06T17:53:09.257Z,32.70
2018-03-06T17:55:35.516Z,31.23
2018-03-06T17:58:02.568Z,32.37
2018-03-06T18:00:28.883Z,30.53
2018-03-06T18:02:55.904Z,30.03
2018-03-06T18:05:22.233Z,30.73
2018-03-06T18:07:48.515Z,30.20
2018-03-06T18:10:14.919Z,32.13
2018-03-06T18:12:41.222Z,33.20
2018-03-06T18:15:09.119Z,33.00
2018-03-06T18:17:36.290Z,33.23
2018-03-06T18:20:02.530Z,33.57
2018-03-06T18:22:28.837Z,34.00
2018-03-06T18:24:56.936Z,34.40
2018-03-06T18:27:23.214Z,34.63
2018-03-06T18:29:49.632Z,35.37
2018-03-06T18:32:15.912Z,35.40
2018-03-06T18:34:42.938Z,35.40
2018-03-06T18:37:09.317Z,37.93
2018-03-06T18:39:41.489Z,37.07
2018-03-06T18:42:20.482Z,34.77
2018-03-06T18:44:46.813Z,37.87
2018-03-06T18:47:13.830Z,39.33
2018-03-06T18:50:05.341Z,39.17
2018-03-06T18:52:32.539Z,36.20
2018-03-06T18:54:58.844Z,39.77
2018-03-06T18:57:25.078Z,37.57
2018-03-06T19:03:11.134Z,38.37
2018-03-06T19:09:00.084Z,35.30
2018-03-06T19:11:27.119Z,37.80
2018-03-06T19:13:53.427Z,40.63
2018-03-06T19:16:19.693Z,36.07
2018-03-06T19:18:46.716Z,36.97
2018-03-06T19:21:13.183Z,36.87
2018-03-06T19:23:40.261Z,34.60
2018-03-06T19:26:07.511Z,37.30
2018-03-06T19:28:34.278Z,37.03
2018-03-06T19:31:00.581Z,37.67
2018-03-06T19:33:26.912Z,36.23
2018-03-06T19:35:53.306Z,33.63
2018-03-06T19:38:19.598Z,33.37
2018-03-06T19:40:45.993Z,34.77
2018-03-06T19:43:14.020Z,35.93
2018-03-06T19:45:40.350Z,35.20
2018-03-06T19:48:06.687Z,33.70
2018-03-06T19:50:33.063Z,31.10
2018-03-06T19:52:59.471Z,34.03
2018-03-06T19:55:27.467Z,34.07
2018-03-06T19:57:53.849Z,33.80
2018-03-06T20:00:20.309Z,31.47
2018-03-06T20:02:47.358Z,34.50
2018-03-06T20:05:14.377Z,32.37
2018-03-06T20:07:40.777Z,34.57
2018-03-06T20:10:07.142Z,34.80
2018-03-06T20:12:33.576Z,33.77
2018-03-06T20:15:06.117Z,33.00
2018-03-06T20:17:32.399Z,32.27
2018-03-06T20:19:58.755Z,30.27
2018-03-06T20:22:25.833Z,27.30
2018-03-06T20:24:58.242Z,29.73
2018-03-06T20:27:24.662Z,29.20
2018-03-06T20:29:51.042Z,26.30
2018-03-06T20:32:24.149Z,27.77
2018-03-06T20:34:50.498Z,29.00
2018-03-06T20:37:16.744Z,27.27
2018-03-06T20:39:49.314Z,27.10
2018-03-06T20:42:15.675Z,26.27
2018-03-06T20:44:42.780Z,28.83
2018-03-06T20:47:15.162Z,28.73
2018-03-06T20:49:41.545Z,29.60
2018-03-06T20:52:07.860Z,29.30
2018-03-06T20:54:40.279Z,28.00
2018-03-06T20:57:06.677Z,27.70
2018-03-06T20:59:32.980Z,28.30
2018-03-06T21:01:59.322Z,29.33
2018-03-06T21:04:25.696Z,28.33
2018-03-06T21:06:52.736Z,29.57
2018-03-06T21:09:19.774Z,25.27
2018-03-06T21:11:46.795Z,26.43
2018-03-06T21:14:13.797Z,26.17
2018-03-06T21:16:40.088Z,26.57
2018-03-06T21:19:06.355Z,30.07
2018-03-06T21:21:32.668Z,26.30
2018-03-06T21:23:58.976Z,29.40
2018-03-06T21:26:25.288Z,24.87
2018-03-06T21:28:52.402Z,24.50
2018-03-06T21:31:18.748Z,23.23
2018-03-06T21:33:45.040Z,23.60
2018-03-06T21:36:12.065Z,24.97
2018-03-06T21:38:38.470Z,24.73
2018-03-06T21:41:04.872Z,24.00
2018-03-06T21:43:31.238Z,23.37
2018-03-06T21:45:57.583Z,22.83
2018-03-06T21:48:23.965Z,22.53
2018-03-06T21:50:50.251Z,22.40
2018-03-06T21:53:16.630Z,23.23
2018-03-06T21:55:42.999Z,25.70
2018-03-06T21:58:09.270Z,24.27
2018-03-06T22:00:36.276Z,24.50
2018-03-06T22:03:02.559Z,23.77
2018-03-06T22:05:29.589Z,26.57
2018-03-06T22:07:55.954Z,28.60
2018-03-06T22:10:22.296Z,25.53
2018-03-06T22:12:48.560Z,25.60
2018-03-06T22:15:14.836Z,27.03
2018-03-06T22:17:41.184Z,24.47
2018-03-06T22:20:07.503Z,27.20
2018-03-06T22:22:33.830Z,27.60
2018-03-06T22:25:00.839Z,24.43
2018-03-06T22:27:27.112Z,26.43
2018-03-06T22:29:53.415Z,25.20
2018-03-06T22:32:20.435Z,29.47
2018-03-06T22:34:46.725Z,29.43
2018-03-06T22:37:13.012Z,26.47
2018-03-06T22:39:39.344Z,26.57
2018-03-06T22:42:05.637Z,26.40
2018-03-06T22:44:31.887Z,24.80
2018-03-06T22:46:58.204Z,25.43
2018-03-06T22:49:24.443Z,25.90
2018-03-06T22:51:50.733Z,28.33
2018-03-06T22:54:16.981Z,26.23
2018-03-06T22:56:43.265Z,24.57
2018-03-06T22:59:10.233Z,25.67
2018-03-06T23:01:36.489Z,27.30
2018-03-06T23:04:02.737Z,28.80
2018-03-06T23:06:29.041Z,28.40
2018-03-06T23:08:55.303Z,27.97
2018-03-06T23:11:21.602Z,27.43
2018-03-06T23:13:47.868Z,26.87
2018-03-06T23:16:14.106Z,26.10
2018-03-06T23:18:40.336Z,28.00
2018-03-06T23:21:07.332Z,26.57
2018-03-06T23:23:33.601Z,26.80
2018-03-06T23:25:59.872Z,25.23
2018-03-06T23:28:26.852Z,25.40
2018-03-06T23:30:53.087Z,28.33
2018-03-06T23:33:19.312Z,26.60
2018-03-06T23:35:45.581Z,27.73
2018-03-06T23:38:11.846Z,27.90
2018-03-06T23:40:38.094Z,27.20
2018-03-06T23:43:04.374Z,30.80
2018-03-06T23:45:30.635Z,28.27
2018-03-06T23:47:56.864Z,28.47
2018-03-06T23:50:23.156Z,28.90
2018-03-06T23:52:49.401Z,28.07
2018-03-06T23:55:16.361Z,29.97
2018-03-06T23:57:43.367Z,31.90
